sensor_id;sensor_type;location;lat;lon;timestamp;P1;durP1;ratioP1;P2;durP2;ratioP2
46745;SDS011;32493;50.514;9.678;2023-08-21T00:00:39;13.20;;;8.40;;
46745;SDS011;32493;50.514;9.678;2023-08-21T00:02:45;11.98;;;7.90;;
46745;SDS011;32493;50.514;9.678;2023-08-21T00:04:51;12.85;;;8.30;;
46745;SDS011;32493;50.514;9.678;2023-08-21T00:06:56;10.55;;;8.20;;
46745;SDS011;32493;50.514;9.678;2023-08-21T00:09:02;13.48;;;8.70;;
46745;SDS011;32493;50.514;9.678;2023-08-21T00:11:12;14.30;;;8.70;;
46745;SDS011;32493;50.514;9.678;2023-08-21T00:13:20;14.30;;;9.55;;
46745;SDS011;32493;50.514;9.678;2023-08-21T00:15:26;10.77;;;8.60;;
46745;SDS011;32493;50.514;9.678;2023-08-21T00:17:31;13.07;;;8.55;;
46745;SDS011;32493;50.514;9.678;2023-08-21T00:19:38;11.82;;;9.05;;
46745;SDS011;32493;50.514;9.678;2023-08-21T00:21:43;15.10;;;8.50;;
46745;SDS011;32493;50.514;9.678;2023-08-21T00:23:49;12.25;;;7.70;;
46745;SDS011;32493;50.514;9.678;2023-08-21T00:25:54;14.00;;;7.88;;
46745;SDS011;32493;50.514;9.678;2023-08-21T00:28:03;11.75;;;7.65;;
46745;SDS011;32493;50.514;9.678;2023-08-21T00:30:11;10.57;;;8.57;;
46745;SDS011;32493;50.514;9.678;2023-08-21T00:32:18;12.23;;;8.93;;
46745;SDS011;32493;50.514;9.678;2023-08-21T00:34:24;11.95;;;8.10;;
46745;SDS011;32493;50.514;9.678;2023-08-21T00:36:30;10.32;;;7.22;;
46745;SDS011;32493;50.514;9.678;2023-08-21T00:38:36;11.48;;;6.22;;
46745;SDS011;32493;50.514;9.678;2023-08-21T00:40:42;15.88;;;6.63;;
46745;SDS011;32493;50.514;9.678;2023-08-21T00:42:47;10.77;;;7.07;;
46745;SDS011;32493;50.514;9.678;2023-08-21T00:44:57;9.80;;;7.22;;
46745;SDS011;32493;50.514;9.678;2023-08-21T00:47:03;120.55;;;10.05;;
46745;SDS011;32493;50.514;9.678;2023-08-21T00:49:09;9.93;;;6.47;;
46745;SDS011;32493;50.514;9.678;2023-08-21T00:51:16;12.27;;;7.63;;
46745;SDS011;32493;50.514;9.678;2023-08-21T00:53:23;8.40;;;6.22;;
46745;SDS011;32493;50.514;9.678;2023-08-21T00:55:29;9.88;;;6.13;;
46745;SDS011;32493;50.514;9.678;2023-08-21T00:57:34;9.98;;;7.30;;
46745;SDS011;32493;50.514;9.678;2023-08-21T00:59:41;7.95;;;6.45;;
46745;SDS011;32493;50.514;9.678;2023-08-21T01:01:51;401.38;;;20.58;;
46745;SDS011;32493;50.514;9.678;2023-08-21T01:03:57;16.75;;;6.10;;
46745;SDS011;32493;50.514;9.678;2023-08-21T01:06:04;6.90;;;6.20;;
46745;SDS011;32493;50.514;9.678;2023-08-21T01:08:10;9.30;;;6.15;;
46745;SDS011;32493;50.514;9.678;2023-08-21T01:10:20;7.10;;;5.95;;
46745;SDS011;32493;50.514;9.678;2023-08-21T01:14:49;9.02;;;6.35;;
46745;SDS011;32493;50.514;9.678;2023-08-21T01:17:06;6.70;;;5.80;;
46745;SDS011;32493;50.514;9.678;2023-08-21T01:19:19;7.50;;;6.80;;
46745;SDS011;32493;50.514;9.678;2023-08-21T01:21:36;10.35;;;6.82;;
46745;SDS011;32493;50.514;9.678;2023-08-21T01:23:44;13.05;;;7.20;;
46745;SDS011;32493;50.514;9.678;2023-08-21T01:25:50;8.50;;;7.10;;
46745;SDS011;32493;50.514;9.678;2023-08-21T01:27:57;10.23;;;7.47;;
46745;SDS011;32493;50.514;9.678;2023-08-21T01:30:04;9.80;;;7.05;;
46745;SDS011;32493;50.514;9.678;2023-08-21T01:34:21;8.55;;;6.60;;
46745;SDS011;32493;50.514;9.678;2023-08-21T01:36:27;12.15;;;8.48;;
46745;SDS011;32493;50.514;9.678;2023-08-21T01:38:34;11.40;;;7.85;;
46745;SDS011;32493;50.514;9.678;2023-08-21T01:40:43;9.95;;;6.72;;
46745;SDS011;32493;50.514;9.678;2023-08-21T01:42:52;13.25;;;8.45;;
46745;SDS011;32493;50.514;9.678;2023-08-21T01:44:58;13.40;;;8.70;;
46745;SDS011;32493;50.514;9.678;2023-08-21T01:47:04;13.05;;;8.52;;
46745;SDS011;32493;50.514;9.678;2023-08-21T01:49:11;11.45;;;8.40;;
46745;SDS011;32493;50.514;9.678;2023-08-21T01:51:16;9.48;;;8.27;;
46745;SDS011;32493;50.514;9.678;2023-08-21T01:53:22;10.10;;;7.57;;
46745;SDS011;32493;50.514;9.678;2023-08-21T01:55:29;110.57;;;10.45;;
46745;SDS011;32493;50.514;9.678;2023-08-21T01:57:37;10.65;;;7.65;;
46745;SDS011;32493;50.514;9.678;2023-08-21T01:59:44;10.93;;;7.38;;
46745;SDS011;32493;50.514;9.678;2023-08-21T02:01:49;9.43;;;7.47;;
46745;SDS011;32493;50.514;9.678;2023-08-21T02:03:55;8.75;;;6.45;;
46745;SDS011;32493;50.514;9.678;2023-08-21T02:06:01;9.10;;;6.63;;
46745;SDS011;32493;50.514;9.678;2023-08-21T02:08:12;9.25;;;7.00;;
46745;SDS011;32493;50.514;9.678;2023-08-21T02:10:18;10.18;;;6.75;;
46745;SDS011;32493;50.514;9.678;2023-08-21T02:12:25;8.27;;;6.30;;
46745;SDS011;32493;50.514;9.678;2023-08-21T02:14:34;12.07;;;7.28;;
46745;SDS011;32493;50.514;9.678;2023-08-21T02:16:39;11.20;;;7.10;;
46745;SDS011;32493;50.514;9.678;2023-08-21T02:18:46;26.55;;;4.93;;
46745;SDS011;32493;50.514;9.678;2023-08-21T02:20:53;10.43;;;6.22;;
46745;SDS011;32493;50.514;9.678;2023-08-21T02:22:59;6.78;;;5.47;;
46745;SDS011;32493;50.514;9.678;2023-08-21T02:25:05;8.55;;;6.47;;
46745;SDS011;32493;50.514;9.678;2023-08-21T02:27:11;9.88;;;7.35;;
46745;SDS011;32493;50.514;9.678;2023-08-21T02:29:17;11.80;;;7.13;;
46745;SDS011;32493;50.514;9.678;2023-08-21T02:31:25;12.63;;;9.02;;
46745;SDS011;32493;50.514;9.678;2023-08-21T02:33:30;10.10;;;5.72;;
46745;SDS011;32493;50.514;9.678;2023-08-21T02:35:36;19.45;;;5.63;;
46745;SDS011;32493;50.514;9.678;2023-08-21T02:37:44;9.63;;;4.80;;
46745;SDS011;32493;50.514;9.678;2023-08-21T02:39:52;6.68;;;5.10;;
46745;SDS011;32493;50.514;9.678;2023-08-21T02:41:58;142.60;;;9.52;;
46745;SDS011;32493;50.514;9.678;2023-08-21T02:44:03;176.32;;;10.55;;
46745;SDS011;32493;50.514;9.678;2023-08-21T02:46:09;171.73;;;8.70;;
46745;SDS011;32493;50.514;9.678;2023-08-21T02:48:18;278.92;;;9.95;;
46745;SDS011;32493;50.514;9.678;2023-08-21T02:50:24;126.30;;;7.10;;
46745;SDS011;32493;50.514;9.678;2023-08-21T02:52:29;312.88;;;15.77;;
46745;SDS011;32493;50.514;9.678;2023-08-21T02:54:36;259.97;;;11.93;;
46745;SDS011;32493;50.514;9.678;2023-08-21T02:56:42;99.25;;;7.50;;
46745;SDS011;32493;50.514;9.678;2023-08-21T02:58:51;9.75;;;5.90;;
46745;SDS011;32493;50.514;9.678;2023-08-21T03:00:58;36.85;;;6.13;;
46745;SDS011;32493;50.514;9.678;2023-08-21T03:03:03;7.20;;;6.05;;
46745;SDS011;32493;50.514;9.678;2023-08-21T03:05:12;9.90;;;5.18;;
46745;SDS011;32493;50.514;9.678;2023-08-21T03:07:18;8.73;;;6.13;;
46745;SDS011;32493;50.514;9.678;2023-08-21T03:09:23;8.73;;;7.70;;
46745;SDS011;32493;50.514;9.678;2023-08-21T03:11:30;278.35;;;13.57;;
46745;SDS011;32493;50.514;9.678;2023-08-21T03:13:36;13.02;;;7.05;;
46745;SDS011;32493;50.514;9.678;2023-08-21T03:15:42;11.23;;;6.85;;
46745;SDS011;32493;50.514;9.678;2023-08-21T03:17:50;136.03;;;9.53;;
46745;SDS011;32493;50.514;9.678;2023-08-21T03:19:59;8.60;;;7.63;;
46745;SDS011;32493;50.514;9.678;2023-08-21T03:22:08;10.52;;;7.07;;
46745;SDS011;32493;50.514;9.678;2023-08-21T03:24:14;171.68;;;11.60;;
46745;SDS011;32493;50.514;9.678;2023-08-21T03:26:21;65.25;;;6.50;;
46745;SDS011;32493;50.514;9.678;2023-08-21T03:28:28;10.27;;;6.80;;
46745;SDS011;32493;50.514;9.678;2023-08-21T03:30:34;59.88;;;9.15;;
46745;SDS011;32493;50.514;9.678;2023-08-21T03:32:41;7.35;;;5.63;;
46745;SDS011;32493;50.514;9.678;2023-08-21T03:34:47;53.00;;;7.78;;
46745;SDS011;32493;50.514;9.678;2023-08-21T03:36:53;8.20;;;6.00;;
46745;SDS011;32493;50.514;9.678;2023-08-21T03:39:05;9.48;;;5.72;;
46745;SDS011;32493;50.514;9.678;2023-08-21T03:41:16;8.77;;;6.70;;
46745;SDS011;32493;50.514;9.678;2023-08-21T03:43:22;10.90;;;7.03;;
46745;SDS011;32493;50.514;9.678;2023-08-21T03:45:28;8.95;;;6.72;;
46745;SDS011;32493;50.514;9.678;2023-08-21T03:47:35;10.50;;;6.00;;
46745;SDS011;32493;50.514;9.678;2023-08-21T03:49:45;8.20;;;5.40;;
46745;SDS011;32493;50.514;9.678;2023-08-21T03:51:52;7.82;;;5.75;;
46745;SDS011;32493;50.514;9.678;2023-08-21T03:53:57;9.20;;;6.05;;
46745;SDS011;32493;50.514;9.678;2023-08-21T03:56:03;284.02;;;14.25;;
46745;SDS011;32493;50.514;9.678;2023-08-21T03:58:09;9.98;;;7.75;;
46745;SDS011;32493;50.514;9.678;2023-08-21T04:00:16;13.23;;;8.93;;
46745;SDS011;32493;50.514;9.678;2023-08-21T04:02:21;10.85;;;7.07;;
46745;SDS011;32493;50.514;9.678;2023-08-21T04:04:27;7.28;;;5.68;;
46745;SDS011;32493;50.514;9.678;2023-08-21T04:06:33;7.05;;;5.75;;
46745;SDS011;32493;50.514;9.678;2023-08-21T04:08:40;8.38;;;6.15;;
46745;SDS011;32493;50.514;9.678;2023-08-21T04:10:46;7.00;;;5.03;;
46745;SDS011;32493;50.514;9.678;2023-08-21T04:12:54;16.48;;;5.78;;
46745;SDS011;32493;50.514;9.678;2023-08-21T04:15:01;384.25;;;17.80;;
46745;SDS011;32493;50.514;9.678;2023-08-21T04:17:09;8.93;;;6.15;;
46745;SDS011;32493;50.514;9.678;2023-08-21T04:19:14;8.75;;;4.75;;
46745;SDS011;32493;50.514;9.678;2023-08-21T04:21:20;7.80;;;6.35;;
46745;SDS011;32493;50.514;9.678;2023-08-21T04:25:34;11.88;;;6.10;;
46745;SDS011;32493;50.514;9.678;2023-08-21T04:27:44;15.18;;;6.80;;
46745;SDS011;32493;50.514;9.678;2023-08-21T04:29:55;6.97;;;4.97;;
46745;SDS011;32493;50.514;9.678;2023-08-21T04:32:01;12.00;;;5.55;;
46745;SDS011;32493;50.514;9.678;2023-08-21T04:34:07;9.20;;;4.13;;
46745;SDS011;32493;50.514;9.678;2023-08-21T04:36:14;7.50;;;4.78;;
46745;SDS011;32493;50.514;9.678;2023-08-21T04:38:23;8.60;;;4.55;;
46745;SDS011;32493;50.514;9.678;2023-08-21T04:40:29;14.70;;;7.07;;
46745;SDS011;32493;50.514;9.678;2023-08-21T04:42:36;11.73;;;6.20;;
46745;SDS011;32493;50.514;9.678;2023-08-21T04:44:41;14.10;;;8.95;;
46745;SDS011;32493;50.514;9.678;2023-08-21T04:48:58;8.55;;;5.82;;
46745;SDS011;32493;50.514;9.678;2023-08-21T04:51:04;8.68;;;5.88;;
46745;SDS011;32493;50.514;9.678;2023-08-21T04:53:11;7.03;;;5.50;;
46745;SDS011;32493;50.514;9.678;2023-08-21T04:55:16;162.20;;;8.57;;
46745;SDS011;32493;50.514;9.678;2023-08-21T04:57:22;137.05;;;7.63;;
46745;SDS011;32493;50.514;9.678;2023-08-21T04:59:27;97.40;;;7.75;;
46745;SDS011;32493;50.514;9.678;2023-08-21T05:01:34;19.02;;;5.07;;
46745;SDS011;32493;50.514;9.678;2023-08-21T05:05:52;6.90;;;6.20;;
46745;SDS011;32493;50.514;9.678;2023-08-21T05:07:58;8.27;;;5.72;;
46745;SDS011;32493;50.514;9.678;2023-08-21T05:10:06;13.10;;;8.77;;
46745;SDS011;32493;50.514;9.678;2023-08-21T05:12:14;15.18;;;7.30;;
46745;SDS011;32493;50.514;9.678;2023-08-21T05:14:20;10.25;;;7.63;;
46745;SDS011;32493;50.514;9.678;2023-08-21T05:16:26;9.93;;;6.75;;
46745;SDS011;32493;50.514;9.678;2023-08-21T05:18:31;9.02;;;7.53;;
46745;SDS011;32493;50.514;9.678;2023-08-21T05:20:40;11.50;;;7.82;;
46745;SDS011;32493;50.514;9.678;2023-08-21T05:22:46;9.93;;;7.97;;
46745;SDS011;32493;50.514;9.678;2023-08-21T05:24:53;8.73;;;7.83;;
46745;SDS011;32493;50.514;9.678;2023-08-21T05:27:00;13.48;;;9.23;;
46745;SDS011;32493;50.514;9.678;2023-08-21T05:29:11;11.63;;;8.75;;
46745;SDS011;32493;50.514;9.678;2023-08-21T05:31:17;12.32;;;9.10;;
46745;SDS011;32493;50.514;9.678;2023-08-21T05:33:26;13.32;;;8.70;;
46745;SDS011;32493;50.514;9.678;2023-08-21T05:35:32;13.32;;;7.65;;
46745;SDS011;32493;50.514;9.678;2023-08-21T05:37:42;15.18;;;8.20;;
46745;SDS011;32493;50.514;9.678;2023-08-21T05:39:49;14.60;;;8.93;;
46745;SDS011;32493;50.514;9.678;2023-08-21T05:41:55;12.65;;;9.07;;
46745;SDS011;32493;50.514;9.678;2023-08-21T05:44:00;12.13;;;9.02;;
46745;SDS011;32493;50.514;9.678;2023-08-21T05:46:06;16.58;;;9.93;;
46745;SDS011;32493;50.514;9.678;2023-08-21T05:48:12;11.50;;;10.18;;
46745;SDS011;32493;50.514;9.678;2023-08-21T05:50:21;16.90;;;10.88;;
46745;SDS011;32493;50.514;9.678;2023-08-21T05:52:29;15.98;;;10.65;;
46745;SDS011;32493;50.514;9.678;2023-08-21T05:54:38;16.45;;;10.57;;
46745;SDS011;32493;50.514;9.678;2023-08-21T05:56:44;14.38;;;11.45;;
46745;SDS011;32493;50.514;9.678;2023-08-21T05:58:50;14.55;;;11.48;;
46745;SDS011;32493;50.514;9.678;2023-08-21T06:01:02;20.55;;;12.95;;
46745;SDS011;32493;50.514;9.678;2023-08-21T06:03:08;17.20;;;13.07;;
46745;SDS011;32493;50.514;9.678;2023-08-21T06:05:27;20.95;;;12.60;;
46745;SDS011;32493;50.514;9.678;2023-08-21T06:07:33;17.17;;;13.25;;
46745;SDS011;32493;50.514;9.678;2023-08-21T06:09:41;18.75;;;13.07;;
46745;SDS011;32493;50.514;9.678;2023-08-21T06:11:47;17.23;;;12.52;;
46745;SDS011;32493;50.514;9.678;2023-08-21T06:13:52;15.00;;;12.38;;
46745;SDS011;32493;50.514;9.678;2023-08-21T06:15:58;17.00;;;13.32;;
46745;SDS011;32493;50.514;9.678;2023-08-21T06:18:11;17.73;;;12.68;;
46745;SDS011;32493;50.514;9.678;2023-08-21T06:20:22;18.27;;;12.43;;
46745;SDS011;32493;50.514;9.678;2023-08-21T06:22:27;14.45;;;11.18;;
46745;SDS011;32493;50.514;9.678;2023-08-21T06:24:33;15.30;;;12.68;;
46745;SDS011;32493;50.514;9.678;2023-08-21T06:26:44;18.13;;;13.05;;
46745;SDS011;32493;50.514;9.678;2023-08-21T06:28:51;17.92;;;12.77;;
46745;SDS011;32493;50.514;9.678;2023-08-21T06:31:00;15.23;;;13.25;;
46745;SDS011;32493;50.514;9.678;2023-08-21T06:33:09;16.33;;;12.52;;
46745;SDS011;32493;50.514;9.678;2023-08-21T06:35:15;18.40;;;12.88;;
46745;SDS011;32493;50.514;9.678;2023-08-21T06:37:17;15.25;;;13.10;;
46745;SDS011;32493;50.514;9.678;2023-08-21T06:39:23;17.88;;;12.55;;
46745;SDS011;32493;50.514;9.678;2023-08-21T06:41:32;18.43;;;13.27;;
46745;SDS011;32493;50.514;9.678;2023-08-21T06:43:41;17.30;;;14.10;;
46745;SDS011;32493;50.514;9.678;2023-08-21T06:45:51;16.40;;;13.70;;
46745;SDS011;32493;50.514;9.678;2023-08-21T06:47:58;16.98;;;13.10;;
46745;SDS011;32493;50.514;9.678;2023-08-21T06:50:09;16.67;;;13.13;;
46745;SDS011;32493;50.514;9.678;2023-08-21T06:52:14;19.05;;;14.38;;
46745;SDS011;32493;50.514;9.678;2023-08-21T06:54:20;15.95;;;13.70;;
46745;SDS011;32493;50.514;9.678;2023-08-21T06:56:26;18.38;;;14.23;;
46745;SDS011;32493;50.514;9.678;2023-08-21T06:58:34;17.67;;;14.40;;
46745;SDS011;32493;50.514;9.678;2023-08-21T07:00:48;15.05;;;12.27;;
46745;SDS011;32493;50.514;9.678;2023-08-21T07:02:54;18.10;;;13.57;;
46745;SDS011;32493;50.514;9.678;2023-08-21T07:05:00;20.27;;;13.85;;
46745;SDS011;32493;50.514;9.678;2023-08-21T07:07:05;19.95;;;14.32;;
46745;SDS011;32493;50.514;9.678;2023-08-21T07:09:10;15.70;;;13.45;;
46745;SDS011;32493;50.514;9.678;2023-08-21T07:11:17;15.18;;;12.95;;
46745;SDS011;32493;50.514;9.678;2023-08-21T07:13:26;16.92;;;13.25;;
46745;SDS011;32493;50.514;9.678;2023-08-21T07:15:31;18.90;;;13.38;;
46745;SDS011;32493;50.514;9.678;2023-08-21T07:17:40;15.15;;;13.13;;
46745;SDS011;32493;50.514;9.678;2023-08-21T07:19:50;20.40;;;13.38;;
46745;SDS011;32493;50.514;9.678;2023-08-21T07:21:56;17.23;;;14.23;;
46745;SDS011;32493;50.514;9.678;2023-08-21T07:24:02;18.48;;;13.25;;
46745;SDS011;32493;50.514;9.678;2023-08-21T07:26:08;16.73;;;13.35;;
46745;SDS011;32493;50.514;9.678;2023-08-21T07:28:13;17.80;;;14.10;;
46745;SDS011;32493;50.514;9.678;2023-08-21T07:30:23;17.33;;;12.50;;
46745;SDS011;32493;50.514;9.678;2023-08-21T07:32:29;17.92;;;13.60;;
46745;SDS011;32493;50.514;9.678;2023-08-21T07:34:37;16.65;;;13.50;;
46745;SDS011;32493;50.514;9.678;2023-08-21T07:36:43;18.40;;;13.68;;
46745;SDS011;32493;50.514;9.678;2023-08-21T07:38:49;18.80;;;14.15;;
46745;SDS011;32493;50.514;9.678;2023-08-21T07:41:01;15.65;;;12.85;;
46745;SDS011;32493;50.514;9.678;2023-08-21T07:43:09;16.33;;;12.75;;
46745;SDS011;32493;50.514;9.678;2023-08-21T07:45:14;18.23;;;13.57;;
46745;SDS011;32493;50.514;9.678;2023-08-21T07:47:20;18.00;;;13.75;;
46745;SDS011;32493;50.514;9.678;2023-08-21T07:49:26;20.63;;;13.05;;
46745;SDS011;32493;50.514;9.678;2023-08-21T07:51:35;20.17;;;13.27;;
46745;SDS011;32493;50.514;9.678;2023-08-21T07:53:42;17.80;;;13.82;;
46745;SDS011;32493;50.514;9.678;2023-08-21T07:55:48;15.23;;;12.45;;
46745;SDS011;32493;50.514;9.678;2023-08-21T07:57:54;16.20;;;12.13;;
46745;SDS011;32493;50.514;9.678;2023-08-21T08:00:05;15.45;;;13.27;;
46745;SDS011;32493;50.514;9.678;2023-08-21T08:02:13;15.60;;;13.15;;
46745;SDS011;32493;50.514;9.678;2023-08-21T08:04:19;16.73;;;12.93;;
46745;SDS011;32493;50.514;9.678;2023-08-21T08:06:25;19.13;;;13.25;;
46745;SDS011;32493;50.514;9.678;2023-08-21T08:08:38;16.83;;;12.57;;
46745;SDS011;32493;50.514;9.678;2023-08-21T08:10:43;19.65;;;12.38;;
46745;SDS011;32493;50.514;9.678;2023-08-21T08:12:49;16.60;;;12.05;;
46745;SDS011;32493;50.514;9.678;2023-08-21T08:14:56;16.37;;;12.13;;
46745;SDS011;32493;50.514;9.678;2023-08-21T08:17:04;15.05;;;12.05;;
46745;SDS011;32493;50.514;9.678;2023-08-21T08:19:14;18.73;;;13.23;;
46745;SDS011;32493;50.514;9.678;2023-08-21T08:21:20;15.55;;;12.90;;
46745;SDS011;32493;50.514;9.678;2023-08-21T08:23:26;16.45;;;12.30;;
46745;SDS011;32493;50.514;9.678;2023-08-21T08:25:34;14.65;;;12.00;;
46745;SDS011;32493;50.514;9.678;2023-08-21T08:27:42;14.40;;;12.18;;
46745;SDS011;32493;50.514;9.678;2023-08-21T08:29:51;20.35;;;12.50;;
46745;SDS011;32493;50.514;9.678;2023-08-21T08:31:57;19.52;;;11.80;;
46745;SDS011;32493;50.514;9.678;2023-08-21T08:34:03;16.38;;;12.20;;
46745;SDS011;32493;50.514;9.678;2023-08-21T08:36:08;16.13;;;11.20;;
46745;SDS011;32493;50.514;9.678;2023-08-21T08:38:14;14.18;;;11.95;;
46745;SDS011;32493;50.514;9.678;2023-08-21T08:40:23;16.65;;;11.90;;
46745;SDS011;32493;50.514;9.678;2023-08-21T08:42:33;17.05;;;12.38;;
46745;SDS011;32493;50.514;9.678;2023-08-21T08:44:41;12.27;;;10.73;;
46745;SDS011;32493;50.514;9.678;2023-08-21T08:46:47;14.50;;;10.30;;
46745;SDS011;32493;50.514;9.678;2023-08-21T08:51:04;13.20;;;11.10;;
46745;SDS011;32493;50.514;9.678;2023-08-21T08:53:09;13.00;;;10.75;;
46745;SDS011;32493;50.514;9.678;2023-08-21T08:55:18;16.23;;;12.38;;
46745;SDS011;32493;50.514;9.678;2023-08-21T08:57:23;14.55;;;11.32;;
46745;SDS011;32493;50.514;9.678;2023-08-21T08:59:32;17.40;;;11.80;;
46745;SDS011;32493;50.514;9.678;2023-08-21T09:01:38;21.95;;;11.80;;
46745;SDS011;32493;50.514;9.678;2023-08-21T09:03:48;13.43;;;11.15;;
46745;SDS011;32493;50.514;9.678;2023-08-21T09:05:54;15.48;;;10.60;;
46745;SDS011;32493;50.514;9.678;2023-08-21T09:08:08;14.73;;;10.52;;
46745;SDS011;32493;50.514;9.678;2023-08-21T09:10:18;13.27;;;11.27;;
46745;SDS011;32493;50.514;9.678;2023-08-21T09:12:21;14.55;;;11.27;;
46745;SDS011;32493;50.514;9.678;2023-08-21T09:14:27;15.40;;;11.88;;
46745;SDS011;32493;50.514;9.678;2023-08-21T09:16:36;12.50;;;10.35;;
46745;SDS011;32493;50.514;9.678;2023-08-21T09:18:46;13.80;;;10.80;;
46745;SDS011;32493;50.514;9.678;2023-08-21T09:20:55;15.18;;;11.02;;
46745;SDS011;32493;50.514;9.678;2023-08-21T09:23:00;12.60;;;10.40;;
46745;SDS011;32493;50.514;9.678;2023-08-21T09:25:06;16.13;;;10.63;;
46745;SDS011;32493;50.514;9.678;2023-08-21T09:27:13;13.35;;;10.48;;
46745;SDS011;32493;50.514;9.678;2023-08-21T09:29:20;12.70;;;10.95;;
46745;SDS011;32493;50.514;9.678;2023-08-21T09:31:29;14.07;;;10.07;;
46745;SDS011;32493;50.514;9.678;2023-08-21T09:33:44;14.45;;;10.60;;
46745;SDS011;32493;50.514;9.678;2023-08-21T09:36:02;13.75;;;9.45;;
46745;SDS011;32493;50.514;9.678;2023-08-21T09:38:08;13.05;;;9.82;;
46745;SDS011;32493;50.514;9.678;2023-08-21T09:40:14;13.93;;;10.27;;
46745;SDS011;32493;50.514;9.678;2023-08-21T09:42:18;12.73;;;9.30;;
46745;SDS011;32493;50.514;9.678;2023-08-21T09:44:26;12.82;;;9.70;;
46745;SDS011;32493;50.514;9.678;2023-08-21T09:46:37;13.95;;;9.65;;
46745;SDS011;32493;50.514;9.678;2023-08-21T09:48:58;13.40;;;9.95;;
46745;SDS011;32493;50.514;9.678;2023-08-21T09:51:05;10.73;;;9.52;;
46745;SDS011;32493;50.514;9.678;2023-08-21T09:53:13;12.18;;;9.25;;
46745;SDS011;32493;50.514;9.678;2023-08-21T09:55:19;15.10;;;9.50;;
46745;SDS011;32493;50.514;9.678;2023-08-21T09:57:24;10.75;;;9.43;;
46745;SDS011;32493;50.514;9.678;2023-08-21T09:59:35;9.73;;;8.35;;
46745;SDS011;32493;50.514;9.678;2023-08-21T10:03:49;9.85;;;7.68;;
46745;SDS011;32493;50.514;9.678;2023-08-21T10:06:02;9.80;;;7.95;;
46745;SDS011;32493;50.514;9.678;2023-08-21T10:08:08;10.18;;;8.15;;
46745;SDS011;32493;50.514;9.678;2023-08-21T10:10:15;7.93;;;6.77;;
46745;SDS011;32493;50.514;9.678;2023-08-21T10:12:21;11.52;;;7.63;;
46745;SDS011;32493;50.514;9.678;2023-08-21T10:14:28;9.53;;;7.03;;
46745;SDS011;32493;50.514;9.678;2023-08-21T10:16:36;10.82;;;7.43;;
46745;SDS011;32493;50.514;9.678;2023-08-21T10:18:45;9.15;;;7.88;;
46745;SDS011;32493;50.514;9.678;2023-08-21T10:20:55;8.55;;;6.85;;
46745;SDS011;32493;50.514;9.678;2023-08-21T10:23:27;9.55;;;6.63;;
46745;SDS011;32493;50.514;9.678;2023-08-21T10:25:41;7.25;;;6.20;;
46745;SDS011;32493;50.514;9.678;2023-08-21T10:27:49;10.60;;;6.40;;
46745;SDS011;32493;50.514;9.678;2023-08-21T10:29:57;7.65;;;5.82;;
46745;SDS011;32493;50.514;9.678;2023-08-21T10:32:03;8.13;;;6.75;;
46745;SDS011;32493;50.514;9.678;2023-08-21T10:34:10;9.95;;;6.30;;
46745;SDS011;32493;50.514;9.678;2023-08-21T10:36:28;6.15;;;4.65;;
46745;SDS011;32493;50.514;9.678;2023-08-21T10:41:08;7.05;;;5.05;;
46745;SDS011;32493;50.514;9.678;2023-08-21T10:45:53;9.43;;;5.40;;
46745;SDS011;32493;50.514;9.678;2023-08-21T10:48:00;5.22;;;4.57;;
46745;SDS011;32493;50.514;9.678;2023-08-21T10:50:09;6.05;;;4.80;;
46745;SDS011;32493;50.514;9.678;2023-08-21T10:52:12;5.57;;;4.45;;
46745;SDS011;32493;50.514;9.678;2023-08-21T10:54:22;7.03;;;4.60;;
46745;SDS011;32493;50.514;9.678;2023-08-21T10:56:27;6.13;;;4.72;;
46745;SDS011;32493;50.514;9.678;2023-08-21T10:58:49;8.65;;;4.90;;
46745;SDS011;32493;50.514;9.678;2023-08-21T11:00:58;8.32;;;5.20;;
46745;SDS011;32493;50.514;9.678;2023-08-21T11:03:05;6.70;;;5.15;;
46745;SDS011;32493;50.514;9.678;2023-08-21T11:05:11;5.82;;;5.22;;
46745;SDS011;32493;50.514;9.678;2023-08-21T11:07:19;8.35;;;5.03;;
46745;SDS011;32493;50.514;9.678;2023-08-21T11:09:28;10.23;;;4.85;;
46745;SDS011;32493;50.514;9.678;2023-08-21T11:11:34;6.90;;;4.45;;
46745;SDS011;32493;50.514;9.678;2023-08-21T11:13:53;5.53;;;4.78;;
46745;SDS011;32493;50.514;9.678;2023-08-21T11:16:00;6.07;;;4.38;;
46745;SDS011;32493;50.514;9.678;2023-08-21T11:18:09;5.55;;;4.30;;
46745;SDS011;32493;50.514;9.678;2023-08-21T11:20:19;9.25;;;4.25;;
46745;SDS011;32493;50.514;9.678;2023-08-21T11:22:28;7.57;;;4.53;;
46745;SDS011;32493;50.514;9.678;2023-08-21T11:24:43;6.25;;;4.07;;
46745;SDS011;32493;50.514;9.678;2023-08-21T11:26:49;8.45;;;4.57;;
46745;SDS011;32493;50.514;9.678;2023-08-21T11:28:59;7.28;;;4.88;;
46745;SDS011;32493;50.514;9.678;2023-08-21T11:31:06;7.78;;;4.75;;
46745;SDS011;32493;50.514;9.678;2023-08-21T11:33:13;4.93;;;4.50;;
46745;SDS011;32493;50.514;9.678;2023-08-21T11:37:26;6.32;;;4.75;;
46745;SDS011;32493;50.514;9.678;2023-08-21T11:39:38;7.78;;;4.70;;
46745;SDS011;32493;50.514;9.678;2023-08-21T11:41:54;5.05;;;4.53;;
46745;SDS011;32493;50.514;9.678;2023-08-21T11:44:01;6.03;;;4.53;;
46745;SDS011;32493;50.514;9.678;2023-08-21T11:46:10;6.38;;;4.50;;
46745;SDS011;32493;50.514;9.678;2023-08-21T11:48:19;5.03;;;4.55;;
46745;SDS011;32493;50.514;9.678;2023-08-21T11:50:24;4.78;;;4.28;;
46745;SDS011;32493;50.514;9.678;2023-08-21T11:52:35;7.03;;;4.47;;
46745;SDS011;32493;50.514;9.678;2023-08-21T11:54:47;5.25;;;4.10;;
46745;SDS011;32493;50.514;9.678;2023-08-21T11:56:54;5.97;;;4.40;;
46745;SDS011;32493;50.514;9.678;2023-08-21T11:59:01;7.15;;;4.57;;
46745;SDS011;32493;50.514;9.678;2023-08-21T12:01:14;5.75;;;4.40;;
46745;SDS011;32493;50.514;9.678;2023-08-21T12:03:22;4.45;;;3.97;;
46745;SDS011;32493;50.514;9.678;2023-08-21T12:05:28;4.33;;;3.93;;
46745;SDS011;32493;50.514;9.678;2023-08-21T12:07:33;4.55;;;4.13;;
46745;SDS011;32493;50.514;9.678;2023-08-21T12:09:45;8.13;;;4.22;;
46745;SDS011;32493;50.514;9.678;2023-08-21T12:11:56;6.70;;;4.55;;
46745;SDS011;32493;50.514;9.678;2023-08-21T12:14:02;4.53;;;4.10;;
46745;SDS011;32493;50.514;9.678;2023-08-21T12:16:10;8.32;;;4.20;;
46745;SDS011;32493;50.514;9.678;2023-08-21T12:18:17;5.85;;;4.05;;
46745;SDS011;32493;50.514;9.678;2023-08-21T12:20:23;7.00;;;3.78;;
46745;SDS011;32493;50.514;9.678;2023-08-21T12:22:29;5.80;;;4.13;;
46745;SDS011;32493;50.514;9.678;2023-08-21T12:24:35;4.60;;;3.88;;
46745;SDS011;32493;50.514;9.678;2023-08-21T12:26:43;4.45;;;3.63;;
46745;SDS011;32493;50.514;9.678;2023-08-21T12:28:54;5.72;;;4.10;;
46745;SDS011;32493;50.514;9.678;2023-08-21T12:31:00;5.70;;;3.85;;
46745;SDS011;32493;50.514;9.678;2023-08-21T12:33:06;4.80;;;3.72;;
46745;SDS011;32493;50.514;9.678;2023-08-21T12:35:25;5.47;;;3.33;;
46745;SDS011;32493;50.514;9.678;2023-08-21T12:37:31;5.90;;;3.50;;
46745;SDS011;32493;50.514;9.678;2023-08-21T12:39:37;6.20;;;3.50;;
46745;SDS011;32493;50.514;9.678;2023-08-21T12:41:45;6.25;;;3.50;;
46745;SDS011;32493;50.514;9.678;2023-08-21T12:43:51;4.45;;;3.47;;
46745;SDS011;32493;50.514;9.678;2023-08-21T12:46:00;4.28;;;3.35;;
46745;SDS011;32493;50.514;9.678;2023-08-21T12:48:06;4.13;;;3.70;;
46745;SDS011;32493;50.514;9.678;2023-08-21T12:50:13;6.18;;;3.58;;
46745;SDS011;32493;50.514;9.678;2023-08-21T12:52:21;4.53;;;3.88;;
46745;SDS011;32493;50.514;9.678;2023-08-21T12:54:26;6.68;;;3.70;;
46745;SDS011;32493;50.514;9.678;2023-08-21T12:56:32;6.17;;;4.03;;
46745;SDS011;32493;50.514;9.678;2023-08-21T12:58:45;5.72;;;3.40;;
46745;SDS011;32493;50.514;9.678;2023-08-21T13:00:53;5.00;;;3.38;;